Orford, United Kingdom
Current Conditions -  °F | °C
As of 7:50 PM on Sunday 21 Dec 2014 (Local Time) from EGUW Reporting Station
Broken Clouds Broken Clouds  
Wind Chill: 50°   Ceiling: 1300
Heat Index: 50°   Visibility: 6mi
Dew Point: 45°   Wind: 24mph
Humidity: 82%   Direction: 240°WSW
Pressure: 30.09"   Gusts: NA
Location:  52.09°N, 1.53°E
Report Text: EGUW 211950Z AUTO 24021KT 9999 BKN013/// SCT070/// 10/07 Q1019
Loading
Personal Weather Stations






























Interactive Weather Map New forecast layout! Learn more

10-Day Weather Forecast

Advertisements
Track Severe Weather on mobile